McGregor, MN

10:33 AM CDT on October 21, 2014 (GMT -0500)
McGregor | Change Station
CLOSE
Current Station
Airport
Location: McGregor,
Elevation: 1227 ft
Nearby Weather Stations

Elev 1227 ft 46.62 °N, 93.31 °W | Updated 27 minutes ago

Clear
Clear
43 °F
Feels Like 37 °F
N
10
Wind Variable Wind from ESE
Gusts 16 mph

Today
High -- | Low -- °F
--% Chance of Precip.
Yesterday
High -- | Low -- °F
Precip. -- in
7:39 AM 6:15 PM
Waning Crescent, 5% visible
Pressure 30.21 in
Visibility 10.0 miles
Clouds Scattered Clouds 1300 ft
Windchill 37 °F
Dew Point 37 °F
Humidity 81%
Rainfall 0.00 in
Snow Depth Not available.
UV 1 out of 12
Pollen 1.00 out of 12
Air Quality Not available.
Flu Activity Sporadic
METAR KHZX 211506Z AUTO 11009G14KT 091V151 10SM SCT013 06/03 A3021 RMK AO2

More Conditions Fewer Conditions

Pressure 30.21 in
Visibility 10.0 miles
Clouds Scattered Clouds 1300 ft
Windchill 37 °F
Dew Point 37 °F
Humidity 81%
Rainfall 0.00 in
Snow Depth Not available.
UV 1 out of 12
Pollen 1.00 out of 12
Air Quality Not available.
Flu Activity Sporadic
METAR KHZX 211506Z AUTO 11009G14KT 091V151 10SM SCT013 06/03 A3021 RMK AO2

More Conditions Fewer Conditions

10-Day Weather Forecast

Almanac

Astronomy

Oct. 21, 2014 Rise Set
Actual Time 7:39 AM CDT 6:15 PM CDT
Civil Twilight 7:08 AM CDT 6:46 PM CDT
Nautical Twilight 6:33 AM CDT 7:21 PM CDT
Astronomical Twilight 5:58 AM CDT 7:56 PM CDT
Moon 5:16 AM CDT 5:16 PM CDT
Length of Visible Light 11h 37m
Length of Day
10h 36m
Tomorrow will be 3m 9s shorter.
Waning Crescent, 5% of the Moon is Illuminated
Today
Waning Crescent
Oct 23
New
Oct 30
First Quarter
Nov 6
Full
Nov 14
Last Quarter

Today's Extremes

State Highs State Lows

Community

WunderPhotos

Upload Photos

1,763,697 photos uploaded!

WunderBlogs® & News

Nearby

Snow Depth

Station Depth Elevation
No new snow has been reported.

Earthquake Activity

City Distance Mag. Time & Date
No recent earthquake activity has been reported nearby.
Minimum magnitude displayed is 2.5.

Coastal Water Temperatures

Place Temperature
No Stations Reporting

Nearby Weather Stations